createdAt,value
2018-12-04T00:00:01.825Z,994.66
2018-12-04T00:01:01.807Z,994.74
2018-12-04T00:02:01.801Z,994.82
2018-12-04T00:03:01.789Z,994.84
2018-12-04T00:04:01.797Z,994.87
2018-12-04T00:05:01.766Z,994.89
2018-12-04T00:06:01.758Z,994.89
2018-12-04T00:07:01.744Z,994.97
2018-12-04T00:08:01.731Z,995.07
2018-12-04T00:09:01.747Z,995.01
2018-12-04T00:10:01.726Z,995.08
2018-12-04T00:11:01.701Z,995.10
2018-12-04T00:12:01.695Z,995.17
2018-12-04T00:13:01.673Z,995.22
2018-12-04T00:14:01.692Z,995.21
2018-12-04T00:15:01.666Z,995.27
2018-12-04T00:16:01.642Z,995.34
2018-12-04T00:17:01.630Z,995.38
2018-12-04T00:18:01.625Z,995.42
2018-12-04T00:19:01.632Z,995.46
2018-12-04T00:20:01.598Z,995.42
2018-12-04T00:21:01.622Z,995.48
2018-12-04T00:22:01.573Z,995.48
2018-12-04T00:23:01.563Z,995.54
2018-12-04T00:24:01.584Z,995.56
2018-12-04T00:25:01.556Z,995.61
2018-12-04T00:26:01.536Z,995.72
2018-12-04T00:27:01.517Z,995.80
2018-12-04T00:28:01.509Z,995.75
2018-12-04T00:29:01.521Z,995.83
2018-12-04T00:30:01.500Z,995.86
2018-12-04T00:31:01.476Z,995.92
2018-12-04T00:32:01.517Z,995.94
2018-12-04T00:33:01.453Z,995.96
2018-12-04T00:34:01.462Z,995.95
2018-12-04T00:35:01.490Z,995.97
2018-12-04T00:36:01.423Z,996.03
2018-12-04T00:37:01.420Z,996.06
2018-12-04T00:38:01.411Z,996.03
2018-12-04T00:39:01.866Z,996.08
2018-12-04T00:40:01.387Z,996.08
2018-12-04T00:41:01.369Z,996.09
2018-12-04T00:42:01.350Z,996.19
2018-12-04T00:43:01.346Z,996.18
2018-12-04T00:44:01.355Z,996.18
2018-12-04T00:45:01.328Z,996.24
2018-12-04T00:46:01.317Z,996.30
2018-12-04T00:47:01.307Z,996.31
2018-12-04T00:48:01.304Z,996.38
2018-12-04T00:49:01.296Z,996.39
2018-12-04T00:50:01.273Z,996.39
2018-12-04T00:51:01.249Z,996.50
2018-12-04T00:52:01.240Z,996.54
2018-12-04T00:53:01.278Z,996.58
2018-12-04T00:54:01.258Z,996.63
2018-12-04T00:55:01.220Z,996.70
2018-12-04T00:56:01.195Z,996.69
2018-12-04T00:57:01.195Z,996.70
2018-12-04T00:58:01.186Z,996.75
2018-12-04T00:59:01.194Z,996.74
2018-12-04T01:00:01.160Z,996.77
2018-12-04T01:01:01.149Z,996.81
2018-12-04T01:02:01.139Z,996.85
2018-12-04T01:03:01.128Z,996.83
2018-12-04T01:04:01.131Z,996.88
2018-12-04T01:05:01.109Z,996.90
2018-12-04T01:06:01.651Z,996.89
2018-12-04T01:07:01.077Z,996.99
2018-12-04T01:08:01.073Z,997.03
2018-12-04T01:09:01.092Z,997.05
2018-12-04T01:10:01.062Z,997.08
2018-12-04T01:11:01.039Z,997.14
2018-12-04T01:12:01.034Z,997.17
2018-12-04T01:13:01.015Z,997.19
2018-12-04T01:14:01.012Z,997.16
2018-12-04T01:15:00.993Z,997.21
2018-12-04T01:16:00.973Z,997.26
2018-12-04T01:17:00.981Z,997.26
2018-12-04T01:18:00.971Z,997.23
2018-12-04T01:19:00.958Z,997.28
2018-12-04T01:20:00.958Z,997.32
2018-12-04T01:21:00.925Z,997.29
2018-12-04T01:22:01.203Z,997.43
2018-12-04T01:23:00.909Z,997.44
2018-12-04T01:24:00.948Z,997.54
2018-12-04T01:25:00.915Z,997.59
2018-12-04T01:26:00.875Z,997.58
2018-12-04T01:27:00.865Z,997.63
2018-12-04T01:28:00.849Z,997.63
2018-12-04T01:29:01.655Z,997.67
2018-12-04T01:30:00.855Z,997.67
2018-12-04T01:31:00.819Z,997.75
2018-12-04T01:32:00.797Z,997.77
2018-12-04T01:33:00.796Z,997.77
2018-12-04T01:34:00.791Z,997.85
2018-12-04T01:35:00.787Z,997.83
2018-12-04T01:36:00.762Z,997.92
2018-12-04T01:37:00.746Z,997.95
2018-12-04T01:38:00.745Z,998.02
2018-12-04T01:39:00.729Z,998.03
2018-12-04T01:40:00.737Z,998.07
2018-12-04T01:41:00.713Z,998.11
2018-12-04T01:42:00.702Z,998.15
2018-12-04T01:43:00.684Z,998.11
2018-12-04T01:45:09.893Z,998.28
2018-12-04T01:46:10.840Z,998.26
2018-12-04T01:47:10.843Z,998.27
2018-12-04T01:48:10.825Z,998.35
2018-12-04T01:49:10.811Z,998.38
2018-12-04T01:50:10.839Z,998.44
2018-12-04T01:51:10.801Z,998.37
2018-12-04T01:52:10.785Z,998.48
2018-12-04T01:53:10.778Z,998.54
2018-12-04T01:54:10.762Z,998.55
2018-12-04T01:55:10.772Z,998.55
2018-12-04T01:56:10.748Z,998.60
2018-12-04T01:57:10.729Z,998.60
2018-12-04T01:58:10.758Z,998.60
2018-12-04T01:59:10.709Z,998.67
2018-12-04T02:00:10.724Z,998.65
2018-12-04T02:01:10.704Z,998.69
2018-12-04T02:02:10.682Z,998.71
2018-12-04T02:03:10.670Z,998.76
2018-12-04T02:04:10.659Z,998.79
2018-12-04T02:05:10.676Z,998.81
2018-12-04T02:06:10.630Z,998.83
2018-12-04T02:07:10.630Z,998.91
2018-12-04T02:08:10.612Z,998.93
2018-12-04T02:09:10.607Z,998.99
2018-12-04T02:10:10.638Z,998.96
2018-12-04T02:11:10.587Z,999.02
2018-12-04T02:12:10.569Z,999.11
2018-12-04T02:13:10.566Z,999.09
2018-12-04T02:14:10.555Z,999.07
2018-12-04T02:15:10.566Z,999.09
2018-12-04T02:16:10.534Z,999.07
2018-12-04T02:17:10.512Z,999.10
2018-12-04T02:18:10.499Z,999.09
2018-12-04T02:19:10.495Z,999.09
2018-12-04T02:20:10.526Z,999.16
2018-12-04T02:21:10.468Z,999.14
2018-12-04T02:22:10.451Z,999.21
2018-12-04T02:23:10.454Z,999.28
2018-12-04T02:24:10.445Z,999.27
2018-12-04T02:25:10.443Z,999.29
2018-12-04T02:26:10.421Z,999.36
2018-12-04T02:27:10.407Z,999.35
2018-12-04T02:28:10.402Z,999.37
2018-12-04T02:29:10.376Z,999.37
2018-12-04T02:30:10.372Z,999.43
2018-12-04T02:31:10.375Z,999.45
2018-12-04T02:32:10.345Z,999.48
2018-12-04T02:33:10.336Z,999.54
2018-12-04T02:34:10.333Z,999.52
2018-12-04T02:35:10.355Z,999.53
2018-12-04T02:36:10.314Z,999.63
2018-12-04T02:37:10.298Z,999.64
2018-12-04T02:38:10.295Z,999.65
2018-12-04T02:39:10.283Z,999.66
2018-12-04T02:40:10.294Z,999.67
2018-12-04T02:41:10.260Z,999.67
2018-12-04T02:42:10.245Z,999.72
2018-12-04T02:43:10.232Z,999.76
2018-12-04T02:44:10.227Z,999.81
2018-12-04T02:45:10.231Z,999.77
2018-12-04T02:46:10.194Z,999.82
2018-12-04T02:47:10.189Z,999.85
2018-12-04T02:48:10.174Z,999.85
2018-12-04T02:49:10.177Z,999.86
2018-12-04T02:50:10.187Z,999.86
2018-12-04T02:51:10.152Z,999.90
2018-12-04T02:52:10.146Z,999.90
2018-12-04T02:53:10.242Z,999.95
2018-12-04T02:54:10.120Z,999.94
2018-12-04T02:55:10.119Z,999.92
2018-12-04T02:56:10.099Z,1000.01
2018-12-04T02:57:10.096Z,1000.01
2018-12-04T02:58:10.076Z,1000.04
2018-12-04T02:59:10.066Z,1000.04
2018-12-04T03:00:10.065Z,1000.06
2018-12-04T03:01:10.045Z,1000.11
2018-12-04T03:02:10.029Z,1000.13
2018-12-04T03:03:10.016Z,1000.16
2018-12-04T03:04:10.014Z,1000.20
2018-12-04T03:05:09.994Z,1000.22
2018-12-04T03:06:09.991Z,1000.25
2018-12-04T03:07:09.985Z,1000.29
2018-12-04T03:08:09.969Z,1000.27
2018-12-04T03:09:09.982Z,1000.27
2018-12-04T03:10:09.932Z,1000.32
2018-12-04T03:11:09.969Z,1000.39
2018-12-04T03:12:09.910Z,1000.40
2018-12-04T03:13:09.900Z,1000.49
2018-12-04T03:14:09.913Z,1000.45
2018-12-04T03:15:09.891Z,1000.48
2018-12-04T03:16:09.914Z,1000.54
2018-12-04T03:17:09.863Z,1000.56
2018-12-04T03:18:09.859Z,1000.56
2018-12-04T03:19:09.841Z,1000.57
2018-12-04T03:20:09.833Z,1000.55
2018-12-04T03:21:09.848Z,1000.57
2018-12-04T03:22:09.814Z,1000.58
2018-12-04T03:23:09.800Z,1000.61
2018-12-04T03:24:09.787Z,1000.63
2018-12-04T03:25:09.777Z,1000.64
2018-12-04T03:26:09.793Z,1000.64
2018-12-04T03:27:09.759Z,1000.68
2018-12-04T03:28:09.822Z,1000.71
2018-12-04T03:29:09.738Z,1000.69
2018-12-04T03:30:09.719Z,1000.71
2018-12-04T03:31:09.729Z,1000.80
2018-12-04T03:32:09.707Z,1000.79
2018-12-04T03:33:09.709Z,1000.78
2018-12-04T03:34:09.686Z,1000.82
2018-12-04T03:35:09.682Z,1000.84
2018-12-04T03:36:09.688Z,1000.86
2018-12-04T03:37:09.645Z,1000.91
2018-12-04T03:38:09.645Z,1000.85
2018-12-04T03:39:09.625Z,1000.89
2018-12-04T03:40:09.624Z,1000.87
2018-12-04T03:41:09.637Z,1000.90
2018-12-04T03:42:09.605Z,1000.95
2018-12-04T03:43:09.585Z,1001.03
2018-12-04T03:44:09.583Z,1001.01
2018-12-04T03:46:19.086Z,1001.06
2018-12-04T03:47:20.052Z,1001.11
2018-12-04T03:48:20.034Z,1001.14
2018-12-04T03:49:20.027Z,1001.14
2018-12-04T03:50:20.019Z,1001.16
2018-12-04T03:51:20.034Z,1001.14
2018-12-04T03:52:19.988Z,1001.13
2018-12-04T03:53:19.976Z,1001.17
2018-12-04T03:54:19.967Z,1001.20
2018-12-04T03:55:19.958Z,1001.21
2018-12-04T03:56:19.981Z,1001.24
2018-12-04T03:57:19.936Z,1001.30
2018-12-04T03:58:19.924Z,1001.23
2018-12-04T03:59:19.913Z,1001.30
2018-12-04T04:00:19.929Z,1001.31
2018-12-04T04:01:19.923Z,1001.30
2018-12-04T04:02:19.896Z,1001.31
2018-12-04T04:03:19.879Z,1001.30
2018-12-04T04:04:19.858Z,1001.33
2018-12-04T04:05:19.849Z,1001.32
2018-12-04T04:06:19.857Z,1001.40
2018-12-04T04:07:19.843Z,1001.41
2018-12-04T04:08:19.821Z,1001.44
2018-12-04T04:09:19.817Z,1001.47
2018-12-04T04:10:19.803Z,1001.50
2018-12-04T04:11:19.803Z,1001.48
2018-12-04T04:12:19.773Z,1001.47
2018-12-04T04:13:19.779Z,1001.51
2018-12-04T04:14:19.764Z,1001.46
2018-12-04T04:15:19.741Z,1001.51
2018-12-04T04:16:19.777Z,1001.53
2018-12-04T04:17:20.018Z,1001.55
2018-12-04T04:18:19.712Z,1001.59
2018-12-04T04:19:19.703Z,1001.56
2018-12-04T04:20:19.682Z,1001.66
2018-12-04T04:21:19.714Z,1001.64
2018-12-04T04:22:19.685Z,1001.65
2018-12-04T04:23:19.667Z,1001.69
2018-12-04T04:24:19.654Z,1001.69
2018-12-04T04:25:19.641Z,1001.72
2018-12-04T04:26:19.644Z,1001.75
2018-12-04T04:27:19.633Z,1001.80
2018-12-04T04:28:19.608Z,1001.79
2018-12-04T04:29:19.600Z,1001.79
2018-12-04T04:30:19.596Z,1001.83
2018-12-04T04:31:19.587Z,1001.80
2018-12-04T04:32:19.579Z,1001.81
2018-12-04T04:33:19.557Z,1001.85
2018-12-04T04:34:19.531Z,1001.85
2018-12-04T04:35:19.531Z,1001.83
2018-12-04T04:36:19.539Z,1001.84
2018-12-04T04:37:19.520Z,1001.88
2018-12-04T04:38:19.509Z,1001.87
2018-12-04T04:39:19.475Z,1001.94
2018-12-04T04:40:19.464Z,1001.98
2018-12-04T04:41:19.479Z,1002.00
2018-12-04T04:42:19.459Z,1002.01
2018-12-04T04:43:19.434Z,1002.04
2018-12-04T04:44:19.439Z,1002.06
2018-12-04T04:45:19.430Z,1002.05
2018-12-04T04:46:19.438Z,1002.08
2018-12-04T04:47:19.404Z,1002.10
2018-12-04T04:48:19.378Z,1002.13
2018-12-04T04:49:19.367Z,1002.13
2018-12-04T04:50:19.376Z,1002.17
2018-12-04T04:51:19.381Z,1002.19
2018-12-04T04:52:19.352Z,1002.27
2018-12-04T04:53:19.344Z,1002.27
2018-12-04T04:54:19.331Z,1002.26
2018-12-04T04:55:19.310Z,1002.33
2018-12-04T04:56:19.318Z,1002.30
2018-12-04T04:57:19.299Z,1002.33
2018-12-04T04:58:19.276Z,1002.32
2018-12-04T04:59:19.284Z,1002.35
2018-12-04T05:00:19.261Z,1002.39
2018-12-04T05:01:19.269Z,1002.42
2018-12-04T05:02:19.233Z,1002.48
2018-12-04T05:03:19.234Z,1002.47
2018-12-04T05:04:19.219Z,1002.49
2018-12-04T05:05:19.194Z,1002.53
2018-12-04T05:06:19.215Z,1002.53
2018-12-04T05:07:19.184Z,1002.60
2018-12-04T05:08:19.163Z,1002.59
2018-12-04T05:09:19.151Z,1002.60
2018-12-04T05:10:19.140Z,1002.60
2018-12-04T05:11:19.150Z,1002.61
2018-12-04T05:12:19.131Z,1002.63
2018-12-04T05:13:19.117Z,1002.66
2018-12-04T05:14:19.105Z,1002.63
2018-12-04T05:15:19.085Z,1002.71
2018-12-04T05:16:19.105Z,1002.70
2018-12-04T05:17:19.081Z,1002.75
2018-12-04T05:18:19.068Z,1002.74
2018-12-04T05:19:19.049Z,1002.79
2018-12-04T05:20:19.042Z,1002.79
2018-12-04T05:21:19.032Z,1002.78
2018-12-04T05:22:19.023Z,1002.83
2018-12-04T05:23:19.002Z,1002.88
2018-12-04T05:24:18.990Z,1002.92
2018-12-04T05:25:18.985Z,1002.91
2018-12-04T05:26:18.980Z,1002.95
2018-12-04T05:27:18.998Z,1002.96
2018-12-04T05:28:18.959Z,1002.94
2018-12-04T05:29:18.933Z,1003.00
2018-12-04T05:30:18.936Z,1003.00
2018-12-04T05:31:18.925Z,1003.04
2018-12-04T05:32:18.927Z,1003.08
2018-12-04T05:33:18.905Z,1003.10
2018-12-04T05:34:18.901Z,1003.12
2018-12-04T05:35:18.879Z,1003.09
2018-12-04T05:36:18.862Z,1003.13
2018-12-04T05:37:18.882Z,1003.15
2018-12-04T05:38:18.864Z,1003.16
2018-12-04T05:39:18.851Z,1003.17
2018-12-04T05:40:18.822Z,1003.20
2018-12-04T05:41:18.809Z,1003.25
2018-12-04T05:42:18.830Z,1003.24
2018-12-04T05:43:18.795Z,1003.27
2018-12-04T05:44:18.775Z,1003.27
2018-12-04T05:45:18.792Z,1003.25
2018-12-04T05:47:28.019Z,1003.33
2018-12-04T05:48:28.939Z,1003.32
2018-12-04T05:49:28.927Z,1003.37
2018-12-04T05:50:28.909Z,1003.38
2018-12-04T05:51:28.902Z,1003.38
2018-12-04T05:52:28.916Z,1003.36
2018-12-04T05:53:28.875Z,1003.36
2018-12-04T05:54:28.871Z,1003.45
2018-12-04T05:55:28.859Z,1003.46
2018-12-04T05:56:28.847Z,1003.57
2018-12-04T05:57:28.866Z,1003.57
2018-12-04T05:58:28.831Z,1003.60
2018-12-04T05:59:28.821Z,1003.60
2018-12-04T06:00:28.813Z,1003.64
2018-12-04T06:01:28.802Z,1003.64
2018-12-04T06:02:28.807Z,1003.67
2018-12-04T06:03:28.792Z,1003.66
2018-12-04T06:04:29.692Z,1003.68
2018-12-04T06:05:28.761Z,1003.77
2018-12-04T06:06:28.739Z,1003.75
2018-12-04T06:07:28.738Z,1003.80
2018-12-04T06:08:28.743Z,1003.83
2018-12-04T06:09:28.714Z,1003.83
2018-12-04T06:10:28.697Z,1003.86
2018-12-04T06:11:28.697Z,1003.89
2018-12-04T06:12:28.733Z,1003.98
2018-12-04T06:13:28.698Z,1003.95
2018-12-04T06:14:28.674Z,1003.99
2018-12-04T06:15:28.657Z,1003.99
2018-12-04T06:16:28.641Z,1004.03
2018-12-04T06:17:28.637Z,1004.07
2018-12-04T06:18:28.645Z,1004.09
2018-12-04T06:19:28.609Z,1004.05
2018-12-04T06:20:28.613Z,1004.10
2018-12-04T06:21:28.588Z,1004.13
2018-12-04T06:22:28.571Z,1004.15
2018-12-04T06:23:28.589Z,1004.22
2018-12-04T06:24:28.548Z,1004.24
2018-12-04T06:25:28.536Z,1004.26
2018-12-04T06:26:28.997Z,1004.30
2018-12-04T06:27:28.529Z,1004.27
2018-12-04T06:28:28.543Z,1004.30
2018-12-04T06:29:28.504Z,1004.36
2018-12-04T06:30:28.482Z,1004.44
2018-12-04T06:31:28.486Z,1004.46
2018-12-04T06:32:28.470Z,1004.51
2018-12-04T06:33:28.478Z,1004.54
2018-12-04T06:34:28.445Z,1004.55
2018-12-04T06:35:28.441Z,1004.58
2018-12-04T06:36:28.447Z,1004.60
2018-12-04T06:37:28.418Z,1004.64
2018-12-04T06:38:28.430Z,1004.66
2018-12-04T06:39:28.395Z,1004.68
2018-12-04T06:40:28.382Z,1004.72
2018-12-04T06:41:28.371Z,1004.70
2018-12-04T06:42:28.363Z,1004.71
2018-12-04T06:43:28.374Z,1004.75
2018-12-04T06:44:28.332Z,1004.76
2018-12-04T06:45:28.334Z,1004.78
2018-12-04T06:46:28.319Z,1004.79
2018-12-04T06:47:28.348Z,1004.81
2018-12-04T06:48:28.311Z,1004.86
2018-12-04T06:49:28.284Z,1004.92
2018-12-04T06:50:28.271Z,1004.98
2018-12-04T06:51:28.287Z,1005.01
2018-12-04T06:52:28.247Z,1005.00
2018-12-04T06:53:28.261Z,1005.00
2018-12-04T06:54:28.396Z,1005.06
2018-12-04T06:55:28.229Z,1005.07
2018-12-04T06:56:28.243Z,1005.15
2018-12-04T06:57:28.201Z,1005.17
2018-12-04T06:58:28.219Z,1005.19
2018-12-04T06:59:28.184Z,1005.23
2018-12-04T07:00:28.185Z,1005.22
2018-12-04T07:01:28.167Z,1005.31
2018-12-04T07:02:28.142Z,1005.29
2018-12-04T07:03:28.591Z,1005.34
2018-12-04T07:04:28.134Z,1005.32
2018-12-04T07:05:28.364Z,1005.37
2018-12-04T07:06:28.109Z,1005.44
2018-12-04T07:07:28.086Z,1005.42
2018-12-04T07:08:28.099Z,1005.46
2018-12-04T07:09:28.079Z,1005.47
2018-12-04T07:10:28.247Z,1005.45
2018-12-04T07:11:28.091Z,1005.49
2018-12-04T07:12:28.030Z,1005.49
2018-12-04T07:13:28.018Z,1005.57
2018-12-04T07:14:28.016Z,1005.58
2018-12-04T07:15:28.005Z,1005.61
2018-12-04T07:16:27.986Z,1005.67
2018-12-04T07:17:28.043Z,1005.71
2018-12-04T07:18:27.978Z,1005.73
2018-12-04T07:19:28.005Z,1005.75
2018-12-04T07:20:27.953Z,1005.77
2018-12-04T07:21:27.953Z,1005.80
2018-12-04T07:22:27.931Z,1005.79
2018-12-04T07:23:27.933Z,1005.77
2018-12-04T07:24:27.925Z,1005.83
2018-12-04T07:25:27.895Z,1005.86
2018-12-04T07:26:27.932Z,1005.91
2018-12-04T07:27:27.883Z,1005.92
2018-12-04T07:28:28.040Z,1005.94
2018-12-04T07:29:27.883Z,1005.99
2018-12-04T07:30:27.850Z,1005.99
2018-12-04T07:31:27.904Z,1006.04
2018-12-04T07:32:28.844Z,1006.05
2018-12-04T07:33:27.843Z,1006.04
2018-12-04T07:34:29.549Z,1006.05
2018-12-04T07:35:27.790Z,1006.07
2018-12-04T07:36:27.880Z,1006.06
2018-12-04T07:37:27.837Z,1006.06
2018-12-04T07:38:27.757Z,1006.05
2018-12-04T07:39:27.774Z,1006.10
2018-12-04T07:40:27.772Z,1006.16
2018-12-04T07:41:27.754Z,1006.18
2018-12-04T07:42:27.786Z,1006.23
2018-12-04T07:43:27.707Z,1006.22
2018-12-04T07:44:27.700Z,1006.28
2018-12-04T07:45:27.715Z,1006.28
2018-12-04T07:46:27.692Z,1006.30
2018-12-04T07:48:47.865Z,1006.32
2018-12-04T07:49:48.851Z,1006.31
2018-12-04T07:50:48.855Z,1006.36
2018-12-04T07:51:48.812Z,1006.35
2018-12-04T07:52:48.799Z,1006.35
2018-12-04T07:53:48.812Z,1006.39
2018-12-04T07:54:48.773Z,1006.47
2018-12-04T07:55:48.786Z,1006.51
2018-12-04T07:56:49.152Z,1006.56
2018-12-04T07:57:48.748Z,1006.61
2018-12-04T07:58:48.748Z,1006.67
2018-12-04T07:59:48.868Z,1006.67
2018-12-04T08:00:48.755Z,1006.63
2018-12-04T08:01:48.707Z,1006.70
2018-12-04T08:02:48.698Z,1006.67
2018-12-04T08:03:48.675Z,1006.66
2018-12-04T08:04:48.677Z,1006.71
2018-12-04T08:05:48.699Z,1006.65
2018-12-04T08:06:48.663Z,1006.66
2018-12-04T08:07:48.645Z,1006.67
2018-12-04T08:08:48.642Z,1006.66
2018-12-04T08:09:48.610Z,1006.72
2018-12-04T08:10:48.640Z,1006.76
2018-12-04T08:11:48.600Z,1006.71
2018-12-04T08:12:48.583Z,1006.82
2018-12-04T08:13:48.605Z,1006.86
2018-12-04T08:14:48.564Z,1006.88
2018-12-04T08:15:48.583Z,1006.93
2018-12-04T08:16:48.580Z,1006.96
2018-12-04T08:17:48.533Z,1007.00
2018-12-04T08:18:48.519Z,1007.00
2018-12-04T08:19:48.518Z,1007.01
2018-12-04T08:20:49.201Z,1007.10
2018-12-04T08:21:48.490Z,1007.09
2018-12-04T08:22:48.498Z,1007.17
2018-12-04T08:23:48.478Z,1007.15
2018-12-04T08:24:48.445Z,1007.20
2018-12-04T08:25:48.449Z,1007.18
2018-12-04T08:26:49.122Z,1007.16
2018-12-04T08:27:48.453Z,1007.22
2018-12-04T08:28:48.410Z,1007.25
2018-12-04T08:29:48.404Z,1007.24
2018-12-04T08:30:48.389Z,1007.28
2018-12-04T08:31:48.403Z,1007.26
2018-12-04T08:32:48.373Z,1007.36
2018-12-04T08:33:48.362Z,1007.35
2018-12-04T08:34:48.427Z,1007.40
2018-12-04T08:35:48.334Z,1007.43
2018-12-04T08:36:48.354Z,1007.45
2018-12-04T08:37:48.315Z,1007.44
2018-12-04T08:38:48.336Z,1007.46
2018-12-04T08:39:48.283Z,1007.51
2018-12-04T08:40:48.294Z,1007.52
2018-12-04T08:41:48.290Z,1007.53
2018-12-04T08:42:48.328Z,1007.53
2018-12-04T08:43:48.276Z,1007.59
2018-12-04T08:44:48.229Z,1007.58
2018-12-04T08:45:48.212Z,1007.57
2018-12-04T08:46:48.233Z,1007.63
2018-12-04T08:47:48.206Z,1007.64
2018-12-04T08:48:48.265Z,1007.57
2018-12-04T08:49:48.203Z,1007.69
2018-12-04T08:50:48.378Z,1007.71
2018-12-04T08:51:48.174Z,1007.68
2018-12-04T08:52:48.150Z,1007.70
2018-12-04T08:53:48.127Z,1007.75
2018-12-04T08:54:50.628Z,1007.81
2018-12-04T08:55:48.122Z,1007.79
2018-12-04T08:56:48.113Z,1007.83
2018-12-04T08:57:48.106Z,1007.78
2018-12-04T08:58:48.319Z,1007.85
2018-12-04T08:59:48.549Z,1007.85
2018-12-04T09:00:48.155Z,1007.86
2018-12-04T09:01:48.062Z,1007.85
2018-12-04T09:02:48.045Z,1007.89
2018-12-04T09:03:48.129Z,1007.91
2018-12-04T09:04:48.245Z,1007.90
2018-12-04T09:05:47.992Z,1007.98
2018-12-04T09:06:48.103Z,1007.93
2018-12-04T09:07:48.349Z,1007.97
2018-12-04T09:08:48.056Z,1008.00
2018-12-04T09:09:48.005Z,1008.04
2018-12-04T09:10:48.051Z,1008.08
2018-12-04T09:11:47.991Z,1008.11
2018-12-04T09:12:47.928Z,1008.15
2018-12-04T09:13:47.961Z,1008.10
2018-12-04T09:14:47.901Z,1008.17
2018-12-04T09:15:48.321Z,1008.21
2018-12-04T09:16:47.891Z,1008.24
2018-12-04T09:17:47.912Z,1008.25
2018-12-04T09:18:47.888Z,1008.29
2018-12-04T09:19:47.859Z,1008.32
2018-12-04T09:20:47.888Z,1008.37
2018-12-04T09:21:47.917Z,1008.36
2018-12-04T09:22:47.871Z,1008.43
2018-12-04T09:23:47.896Z,1008.48
2018-12-04T09:24:47.823Z,1008.52
2018-12-04T09:25:47.838Z,1008.52
2018-12-04T09:26:47.898Z,1008.59
2018-12-04T09:27:47.758Z,1008.61
2018-12-04T09:28:48.028Z,1008.65
2018-12-04T09:29:47.743Z,1008.69
2018-12-04T09:30:47.720Z,1008.69
2018-12-04T09:31:47.725Z,1008.69
2018-12-04T09:32:47.705Z,1008.72
2018-12-04T09:33:47.691Z,1008.80
2018-12-04T09:34:47.671Z,1008.76
2018-12-04T09:35:47.683Z,1008.81
2018-12-04T09:36:47.713Z,1008.81
2018-12-04T09:37:47.696Z,1008.85
2018-12-04T09:38:47.637Z,1008.84
2018-12-04T09:39:47.693Z,1008.89
2018-12-04T09:40:47.613Z,1008.93
2018-12-04T09:41:47.632Z,1008.90
2018-12-04T09:42:47.595Z,1008.96
2018-12-04T09:43:47.595Z,1008.98
2018-12-04T09:44:47.668Z,1008.96
2018-12-04T09:45:48.134Z,1008.96
2018-12-04T09:46:47.598Z,1008.96
2018-12-04T09:47:47.546Z,1008.93
2018-12-04T09:49:58.657Z,1009.05
2018-12-04T09:50:59.690Z,1009.05
2018-12-04T09:51:59.656Z,1009.07
2018-12-04T09:52:59.680Z,1009.08
2018-12-04T09:53:59.616Z,1009.06
2018-12-04T09:54:59.649Z,1009.03
2018-12-04T09:55:59.733Z,1009.07
2018-12-04T09:56:59.597Z,1009.10
2018-12-04T09:57:59.623Z,1009.20
2018-12-04T09:59:00.539Z,1009.25
2018-12-04T09:59:59.776Z,1009.26
2018-12-04T10:00:59.824Z,1009.22
2018-12-04T10:02:03.008Z,1009.27
2018-12-04T10:03:00.772Z,1009.22
2018-12-04T10:03:59.623Z,1009.23
2018-12-04T10:04:59.810Z,1009.25
2018-12-04T10:05:59.497Z,1009.28
2018-12-04T10:06:59.465Z,1009.27
2018-12-04T10:07:59.475Z,1009.29
2018-12-04T10:08:59.856Z,1009.31
2018-12-04T10:10:00.783Z,1009.31
2018-12-04T10:10:59.432Z,1009.33
2018-12-04T10:11:59.734Z,1009.35
2018-12-04T10:12:59.472Z,1009.39
2018-12-04T10:13:59.404Z,1009.38
2018-12-04T10:14:59.564Z,1009.44
2018-12-04T10:15:59.410Z,1009.43
2018-12-04T10:16:59.356Z,1009.48
2018-12-04T10:17:59.370Z,1009.52
2018-12-04T10:18:59.374Z,1009.48
2018-12-04T10:19:59.330Z,1009.52
2018-12-04T10:20:59.313Z,1009.53
2018-12-04T10:21:59.316Z,1009.54
2018-12-04T10:22:59.327Z,1009.51
2018-12-04T10:23:59.348Z,1009.50
2018-12-04T10:24:59.302Z,1009.54
2018-12-04T10:25:59.263Z,1009.56
2018-12-04T10:26:59.268Z,1009.54
2018-12-04T10:27:59.300Z,1009.53
2018-12-04T10:28:59.492Z,1009.49
2018-12-04T10:30:00.348Z,1009.46
2018-12-04T10:30:59.247Z,1009.47
2018-12-04T10:31:59.979Z,1009.52
2018-12-04T10:32:59.190Z,1009.58
2018-12-04T10:33:59.991Z,1009.54
2018-12-04T10:34:59.379Z,1009.60
2018-12-04T10:35:59.174Z,1009.65
2018-12-04T10:36:59.186Z,1009.63
2018-12-04T10:38:00.435Z,1009.62
2018-12-04T10:38:59.190Z,1009.64
2018-12-04T10:39:59.161Z,1009.61
2018-12-04T10:40:59.106Z,1009.63
2018-12-04T10:41:59.109Z,1009.65
2018-12-04T10:42:59.082Z,1009.65
2018-12-04T10:43:59.086Z,1009.67
2018-12-04T10:44:59.050Z,1009.65
2018-12-04T10:45:59.047Z,1009.68
2018-12-04T10:46:59.030Z,1009.71
2018-12-04T10:47:59.018Z,1009.72
2018-12-04T10:48:59.013Z,1009.67
2018-12-04T10:49:59.006Z,1009.70
2018-12-04T10:50:58.987Z,1009.71
2018-12-04T10:51:59.156Z,1009.75
2018-12-04T10:52:59.003Z,1009.73
2018-12-04T10:53:58.959Z,1009.74
2018-12-04T10:54:58.987Z,1009.77
2018-12-04T10:55:58.940Z,1009.73
2018-12-04T10:56:58.931Z,1009.77
2018-12-04T10:57:59.171Z,1009.82
2018-12-04T10:58:59.106Z,1009.82
2018-12-04T10:59:58.914Z,1009.83
2018-12-04T11:00:58.998Z,1009.86
2018-12-04T11:01:58.868Z,1009.88
2018-12-04T11:02:58.866Z,1009.86
2018-12-04T11:03:58.862Z,1009.85
2018-12-04T11:04:58.862Z,1009.82
2018-12-04T11:05:58.990Z,1009.86
2018-12-04T11:06:58.888Z,1009.88
2018-12-04T11:07:58.814Z,1009.86
2018-12-04T11:08:58.791Z,1009.87
2018-12-04T11:09:58.807Z,1009.88
2018-12-04T11:10:59.041Z,1009.89
2018-12-04T11:11:58.884Z,1009.91
2018-12-04T11:12:58.752Z,1009.97
2018-12-04T11:13:59.005Z,1009.96
2018-12-04T11:14:58.743Z,1009.97
2018-12-04T11:15:59.041Z,1009.96
2018-12-04T11:16:58.767Z,1010.03
2018-12-04T11:17:58.705Z,1010.07
2018-12-04T11:18:58.693Z,1010.05
2018-12-04T11:19:58.698Z,1010.06
2018-12-04T11:20:58.659Z,1010.03
2018-12-04T11:21:58.660Z,1010.06
2018-12-04T11:22:58.649Z,1010.05
2018-12-04T11:23:58.634Z,1010.06
2018-12-04T11:24:58.650Z,1010.08
2018-12-04T11:25:58.630Z,1010.10
2018-12-04T11:26:58.595Z,1010.13
2018-12-04T11:27:58.597Z,1010.13
2018-12-04T11:28:58.589Z,1010.12
2018-12-04T11:29:58.602Z,1010.09
2018-12-04T11:30:58.569Z,1010.10
2018-12-04T11:31:58.551Z,1010.21
2018-12-04T11:32:58.527Z,1010.19
2018-12-04T11:33:58.530Z,1010.24
2018-12-04T11:34:58.530Z,1010.19
2018-12-04T11:35:58.502Z,1010.22
2018-12-04T11:36:58.617Z,1010.16
2018-12-04T11:37:58.485Z,1010.21
2018-12-04T11:38:58.474Z,1010.23
2018-12-04T11:39:58.501Z,1010.27
2018-12-04T11:40:58.473Z,1010.30
2018-12-04T11:41:58.453Z,1010.27
2018-12-04T11:42:58.433Z,1010.33
2018-12-04T11:43:58.475Z,1010.32
2018-12-04T11:44:58.431Z,1010.31
2018-12-04T11:45:58.409Z,1010.37
2018-12-04T11:46:58.387Z,1010.38
2018-12-04T11:47:58.387Z,1010.40
2018-12-04T11:48:58.395Z,1010.41
2018-12-04T11:51:07.591Z,1010.42
2018-12-04T11:52:08.538Z,1010.48
2018-12-04T11:53:08.527Z,1010.46
2018-12-04T11:54:08.577Z,1010.50
2018-12-04T11:55:08.506Z,1010.47
2018-12-04T11:56:08.541Z,1010.54
2018-12-04T11:57:08.489Z,1010.54
2018-12-04T11:58:08.474Z,1010.53
2018-12-04T11:59:08.522Z,1010.60
2018-12-04T12:00:08.449Z,1010.60
2018-12-04T12:01:08.464Z,1010.62
2018-12-04T12:02:10.779Z,1010.59
2018-12-04T12:03:08.418Z,1010.58
2018-12-04T12:04:08.411Z,1010.67
2018-12-04T12:05:08.409Z,1010.67
2018-12-04T12:06:08.417Z,1010.66
2018-12-04T12:07:08.378Z,1010.61
2018-12-04T12:08:08.366Z,1010.62
2018-12-04T12:09:08.364Z,1010.64
2018-12-04T12:10:08.340Z,1010.61
2018-12-04T12:11:08.362Z,1010.60
2018-12-04T12:12:08.332Z,1010.59
2018-12-04T12:13:08.315Z,1010.66
2018-12-04T12:14:08.293Z,1010.68
2018-12-04T12:15:08.307Z,1010.63
2018-12-04T12:16:08.401Z,1010.61
2018-12-04T12:17:08.271Z,1010.61
2018-12-04T12:18:08.275Z,1010.63